createdAt,value
2023-03-29T00:00:14.783Z,1311.00
2023-03-29T00:01:35.051Z,1338.00
2023-03-29T00:02:15.835Z,1338.00
2023-03-29T00:03:14.938Z,1327.00
2023-03-29T00:04:14.816Z,1319.00
2023-03-29T00:05:14.785Z,1330.00
2023-03-29T00:06:14.774Z,1321.00
2023-03-29T00:07:14.752Z,1335.00
2023-03-29T00:08:15.003Z,1324.00
2023-03-29T00:09:14.735Z,1325.00
2023-03-29T00:10:14.712Z,1296.00
2023-03-29T00:11:14.684Z,1310.00
2023-03-29T00:12:14.681Z,1297.00
2023-03-29T00:13:14.720Z,1289.00
2023-03-29T00:14:14.758Z,1314.00
2023-03-29T00:15:14.800Z,1289.00
2023-03-29T00:16:14.859Z,1299.00
2023-03-29T00:17:14.928Z,1297.00
2023-03-29T00:18:14.919Z,1284.00
2023-03-29T00:19:14.954Z,1290.00
2023-03-29T00:20:14.993Z,1291.00
2023-03-29T00:21:15.040Z,1289.00
2023-03-29T00:22:15.076Z,1282.00
2023-03-29T00:23:15.111Z,1289.00
2023-03-29T00:24:15.162Z,1284.00
2023-03-29T00:25:15.204Z,1276.00
2023-03-29T00:26:15.246Z,1281.00
2023-03-29T00:27:15.284Z,1283.00
2023-03-29T00:28:15.328Z,1284.00
2023-03-29T00:29:15.366Z,1285.00
2023-03-29T00:30:15.429Z,1277.00
2023-03-29T00:31:15.484Z,1277.00
2023-03-29T00:32:15.485Z,1275.00
2023-03-29T00:33:15.517Z,1286.00
2023-03-29T00:34:15.575Z,1285.00
2023-03-29T00:35:15.595Z,1273.00
2023-03-29T00:36:15.633Z,1274.00
2023-03-29T00:37:15.691Z,1261.00
2023-03-29T00:38:15.712Z,1259.00
2023-03-29T00:39:15.747Z,1260.00
2023-03-29T00:40:15.843Z,1263.00
2023-03-29T00:41:15.824Z,1278.00
2023-03-29T00:42:15.870Z,1257.00
2023-03-29T00:43:15.900Z,1262.00
2023-03-29T00:44:15.937Z,1262.00
2023-03-29T00:45:15.979Z,1249.00
2023-03-29T00:46:16.069Z,1250.00
2023-03-29T00:47:16.048Z,1262.00
2023-03-29T00:48:16.084Z,1249.00
2023-03-29T00:49:16.127Z,1248.00
2023-03-29T00:50:16.164Z,1254.00
2023-03-29T00:51:16.207Z,1257.00
2023-03-29T00:52:16.249Z,1247.00
2023-03-29T00:53:16.283Z,1249.00
2023-03-29T00:54:16.332Z,1250.00
2023-03-29T00:55:16.370Z,1237.00
2023-03-29T00:56:16.409Z,1236.00
2023-03-29T00:57:17.126Z,1244.00
2023-03-29T00:58:16.496Z,1243.00
2023-03-29T00:59:16.547Z,1239.00
2023-03-29T01:00:16.582Z,1241.00
2023-03-29T01:01:16.667Z,1243.00
2023-03-29T01:02:16.725Z,1241.00
2023-03-29T01:03:16.837Z,1245.00
2023-03-29T01:04:16.791Z,1229.00
2023-03-29T01:05:16.844Z,1226.00
2023-03-29T01:06:16.897Z,1227.00
2023-03-29T01:07:17.017Z,1228.00
2023-03-29T01:08:16.973Z,1239.00
2023-03-29T01:09:17.021Z,1221.00
2023-03-29T01:10:17.068Z,1223.00
2023-03-29T01:11:17.113Z,1240.00
2023-03-29T01:12:17.177Z,1230.00
2023-03-29T01:13:17.207Z,1224.00
2023-03-29T01:14:17.248Z,1216.00
2023-03-29T01:15:17.289Z,1222.00
2023-03-29T01:16:17.380Z,1218.00
2023-03-29T01:17:17.386Z,1205.00
2023-03-29T01:18:17.431Z,1205.00
2023-03-29T01:19:17.527Z,1208.00
2023-03-29T01:20:17.536Z,1218.00
2023-03-29T01:21:17.606Z,1212.00
2023-03-29T01:22:17.602Z,1216.00
2023-03-29T01:23:17.654Z,1213.00
2023-03-29T01:24:17.718Z,1213.00
2023-03-29T01:25:17.742Z,1211.00
2023-03-29T01:26:17.795Z,1202.00
2023-03-29T01:27:17.848Z,1203.00
2023-03-29T01:28:17.906Z,1211.00
2023-03-29T01:29:17.954Z,1209.00
2023-03-29T01:30:17.987Z,1213.00
2023-03-29T01:31:18.052Z,1210.00
2023-03-29T01:32:18.099Z,1214.00
2023-03-29T01:33:18.125Z,1206.00
2023-03-29T01:34:18.191Z,1201.00
2023-03-29T01:35:18.231Z,1192.00
2023-03-29T01:36:18.347Z,1204.00
2023-03-29T01:37:18.322Z,1198.00
2023-03-29T01:38:18.357Z,1194.00
2023-03-29T01:39:18.411Z,1181.00
2023-03-29T01:40:18.449Z,1186.00
2023-03-29T01:41:18.487Z,1198.00
2023-03-29T01:42:18.532Z,1181.00
2023-03-29T01:43:18.574Z,1197.00
2023-03-29T01:44:18.628Z,1182.00
2023-03-29T01:45:18.655Z,1188.00
2023-03-29T01:46:18.737Z,1192.00
2023-03-29T01:47:18.756Z,1180.00
2023-03-29T01:48:18.797Z,1196.00
2023-03-29T01:49:18.843Z,1185.00
2023-03-29T01:50:18.889Z,1182.00
2023-03-29T01:51:18.917Z,1184.00
2023-03-29T01:52:18.969Z,1183.00
2023-03-29T01:53:19.010Z,1170.00
2023-03-29T01:54:19.041Z,1182.00
2023-03-29T01:55:19.074Z,1177.00
2023-03-29T01:56:19.112Z,1186.00
2023-03-29T01:57:19.216Z,1177.00
2023-03-29T01:58:19.184Z,1184.00
2023-03-29T01:59:19.236Z,1176.00
2023-03-29T02:00:19.273Z,1175.00
2023-03-29T02:01:19.322Z,1168.00
2023-03-29T02:02:19.376Z,1173.00
2023-03-29T02:03:19.468Z,1176.00
2023-03-29T02:04:19.432Z,1175.00
2023-03-29T02:05:19.470Z,1176.00
2023-03-29T02:06:19.508Z,1170.00
2023-03-29T02:07:19.551Z,1161.00
2023-03-29T02:08:19.596Z,1158.00
2023-03-29T02:09:19.645Z,1160.00
2023-03-29T02:10:19.701Z,1164.00
2023-03-29T02:11:19.730Z,1164.00
2023-03-29T02:12:19.775Z,1171.00
2023-03-29T02:13:19.823Z,1177.00
2023-03-29T02:14:19.877Z,1168.00
2023-03-29T02:15:19.932Z,1166.00
2023-03-29T02:16:20.013Z,1153.00
2023-03-29T02:17:20.032Z,1157.00
2023-03-29T02:18:20.056Z,1166.00
2023-03-29T02:19:20.104Z,1161.00
2023-03-29T02:20:20.158Z,1144.00
2023-03-29T02:21:20.186Z,1153.00
2023-03-29T02:22:20.230Z,1138.00
2023-03-29T02:23:20.294Z,1143.00
2023-03-29T02:24:20.332Z,1139.00
2023-03-29T02:25:20.371Z,1147.00
2023-03-29T02:26:20.417Z,1145.00
2023-03-29T02:27:20.465Z,1138.00
2023-03-29T02:28:20.513Z,1130.00
2023-03-29T02:29:20.554Z,1153.00
2023-03-29T02:30:20.600Z,1127.00
2023-03-29T02:31:20.696Z,1138.00
2023-03-29T02:32:20.684Z,1132.00
2023-03-29T02:33:20.732Z,1132.00
2023-03-29T02:34:20.777Z,1132.00
2023-03-29T02:35:20.809Z,1121.00
2023-03-29T02:36:20.908Z,1124.00
2023-03-29T02:37:20.877Z,1125.00
2023-03-29T02:38:20.929Z,1121.00
2023-03-29T02:39:20.974Z,1122.00
2023-03-29T02:40:21.043Z,1105.00
2023-03-29T02:41:21.062Z,1122.00
2023-03-29T02:42:21.100Z,1114.00
2023-03-29T02:43:21.880Z,1110.00
2023-03-29T02:44:21.199Z,1110.00
2023-03-29T02:45:21.233Z,1113.00
2023-03-29T02:46:21.305Z,1114.00
2023-03-29T02:47:21.317Z,1114.00
2023-03-29T02:48:21.355Z,1103.00
2023-03-29T02:49:21.413Z,1116.00
2023-03-29T02:50:21.454Z,1120.00
2023-03-29T02:51:21.499Z,1104.00
2023-03-29T02:52:21.552Z,1102.00
2023-03-29T02:53:21.595Z,1100.00
2023-03-29T02:54:21.639Z,1088.00
2023-03-29T02:55:21.685Z,1097.00
2023-03-29T02:56:21.724Z,1100.00
2023-03-29T02:57:21.844Z,1089.00
2023-03-29T02:58:21.817Z,1093.00
2023-03-29T02:59:21.865Z,1094.00
2023-03-29T03:00:21.905Z,1094.00
2023-03-29T03:01:22.023Z,1092.00
2023-03-29T03:02:21.993Z,1091.00
2023-03-29T03:03:22.137Z,1083.00
2023-03-29T03:04:22.105Z,1079.00
2023-03-29T03:05:22.137Z,1085.00
2023-03-29T03:06:22.195Z,1079.00
2023-03-29T03:07:22.248Z,1082.00
2023-03-29T03:08:22.276Z,1085.00
2023-03-29T03:09:22.347Z,1074.00
2023-03-29T03:10:22.360Z,1082.00
2023-03-29T03:11:22.400Z,1074.00
2023-03-29T03:12:22.452Z,1071.00
2023-03-29T03:13:22.494Z,1076.00
2023-03-29T03:14:22.537Z,1074.00
2023-03-29T03:15:22.567Z,1067.00
2023-03-29T03:16:22.648Z,1067.00
2023-03-29T03:17:22.663Z,1068.00
2023-03-29T03:18:22.690Z,1068.00
2023-03-29T03:19:22.721Z,1060.00
2023-03-29T03:20:22.746Z,1054.00
2023-03-29T03:21:22.782Z,1060.00
2023-03-29T03:22:22.801Z,1069.00
2023-03-29T03:23:22.810Z,1065.00
2023-03-29T03:24:22.840Z,1046.00
2023-03-29T03:25:22.856Z,1055.00
2023-03-29T03:26:22.879Z,1059.00
2023-03-29T03:27:22.907Z,1056.00
2023-03-29T03:28:22.933Z,1061.00
2023-03-29T03:29:22.948Z,1053.00
2023-03-29T03:30:22.980Z,1067.00
2023-03-29T03:31:23.016Z,1056.00
2023-03-29T03:32:23.020Z,1048.00
2023-03-29T03:33:23.035Z,1054.00
2023-03-29T03:34:23.073Z,1058.00
2023-03-29T03:35:23.077Z,1056.00
2023-03-29T03:36:23.101Z,1045.00
2023-03-29T03:37:23.113Z,1053.00
2023-03-29T03:38:23.130Z,1049.00
2023-03-29T03:39:23.179Z,1055.00
2023-03-29T03:40:23.178Z,1048.00
2023-03-29T03:41:23.174Z,1037.00
2023-03-29T03:42:23.180Z,1037.00
2023-03-29T03:43:23.194Z,1030.00
2023-03-29T03:44:23.213Z,1053.00
2023-03-29T03:45:23.226Z,1040.00
2023-03-29T03:46:23.298Z,1032.00
2023-03-29T03:47:23.296Z,1027.00
2023-03-29T03:48:23.276Z,1040.00
2023-03-29T03:49:23.306Z,1037.00
2023-03-29T03:50:23.331Z,1047.00
2023-03-29T03:51:23.339Z,1032.00
2023-03-29T03:52:23.342Z,1032.00
2023-03-29T03:53:23.356Z,1036.00
2023-03-29T03:54:23.378Z,1027.00
2023-03-29T03:55:23.390Z,1021.00
2023-03-29T03:56:23.388Z,1032.00
2023-03-29T03:57:23.426Z,1034.00
2023-03-29T03:58:23.417Z,1030.00
2023-03-29T03:59:23.431Z,1039.00
2023-03-29T04:00:23.439Z,1020.00
2023-03-29T04:01:23.455Z,1029.00
2023-03-29T04:02:23.492Z,1024.00
2023-03-29T04:03:23.549Z,1035.00
2023-03-29T04:04:23.579Z,1018.00
2023-03-29T04:05:23.449Z,1019.00
2023-03-29T04:06:23.614Z,1015.00
2023-03-29T04:07:23.459Z,1028.00
2023-03-29T04:08:23.471Z,1029.00
2023-03-29T04:09:23.482Z,1008.00
2023-03-29T04:10:23.477Z,1018.00
2023-03-29T04:11:23.494Z,1017.00
2023-03-29T04:12:23.501Z,1011.00
2023-03-29T04:13:23.500Z,1020.00
2023-03-29T04:14:23.506Z,1017.00
2023-03-29T04:15:23.502Z,1017.00
2023-03-29T04:16:23.547Z,1019.00
2023-03-29T04:17:23.547Z,1010.00
2023-03-29T04:18:23.597Z,1010.00
2023-03-29T04:19:23.531Z,1013.00
2023-03-29T04:20:23.517Z,1015.00
2023-03-29T04:21:23.540Z,1013.00
2023-03-29T04:22:23.538Z,1005.00
2023-03-29T04:23:23.538Z,1020.00
2023-03-29T04:24:23.548Z,1008.00
2023-03-29T04:25:23.544Z,1000.00
2023-03-29T04:26:23.565Z,1011.00
2023-03-29T04:27:23.561Z,1006.00
2023-03-29T04:28:23.567Z,998.00
2023-03-29T04:29:23.582Z,995.00
2023-03-29T04:30:23.589Z,1003.00
2023-03-29T04:31:23.633Z,1015.00
2023-03-29T04:32:23.647Z,994.00
2023-03-29T04:33:23.599Z,1004.00
2023-03-29T04:34:23.666Z,1006.00
2023-03-29T04:35:23.623Z,996.00
2023-03-29T04:36:23.649Z,1000.00
2023-03-29T04:37:23.622Z,1000.00
2023-03-29T04:38:23.693Z,992.00
2023-03-29T04:39:23.653Z,997.00
2023-03-29T04:40:23.664Z,1004.00
2023-03-29T04:41:23.687Z,991.00
2023-03-29T04:42:23.671Z,994.00
2023-03-29T04:43:23.714Z,994.00
2023-03-29T04:44:23.700Z,991.00
2023-03-29T04:45:23.729Z,994.00
2023-03-29T04:46:23.779Z,981.00
2023-03-29T04:47:23.808Z,983.00
2023-03-29T04:48:23.732Z,990.00
2023-03-29T04:49:25.993Z,991.00
2023-03-29T04:50:23.789Z,993.00
2023-03-29T04:51:23.787Z,986.00
2023-03-29T04:52:24.509Z,990.00
2023-03-29T04:53:23.814Z,994.00
2023-03-29T04:54:23.828Z,994.00
2023-03-29T04:55:23.841Z,982.00
2023-03-29T04:56:23.849Z,974.00
2023-03-29T04:57:23.954Z,988.00
2023-03-29T04:58:27.120Z,981.00
2023-03-29T04:59:24.837Z,982.00
2023-03-29T05:00:23.838Z,983.00
2023-03-29T05:01:23.877Z,986.00
2023-03-29T05:02:23.833Z,986.00
2023-03-29T05:03:23.782Z,994.00
2023-03-29T05:04:23.806Z,984.00
2023-03-29T05:05:23.763Z,974.00
2023-03-29T05:06:23.730Z,969.00
2023-03-29T05:07:23.714Z,970.00
2023-03-29T05:08:23.700Z,985.00
2023-03-29T05:09:23.693Z,976.00
2023-03-29T05:10:23.676Z,987.00
2023-03-29T05:11:23.654Z,985.00
2023-03-29T05:12:23.634Z,981.00
2023-03-29T05:13:23.617Z,974.00
2023-03-29T05:14:23.603Z,966.00
2023-03-29T05:15:23.589Z,966.00
2023-03-29T05:16:23.626Z,965.00
2023-03-29T05:17:23.592Z,978.00
2023-03-29T05:18:23.553Z,962.00
2023-03-29T05:19:23.543Z,944.00
2023-03-29T05:20:23.719Z,930.00
2023-03-29T05:21:23.586Z,930.00
2023-03-29T05:22:23.596Z,919.00
2023-03-29T05:23:23.615Z,908.00
2023-03-29T05:24:23.634Z,917.00
2023-03-29T05:25:23.663Z,918.00
2023-03-29T05:26:23.668Z,908.00
2023-03-29T05:27:23.679Z,899.00
2023-03-29T05:28:23.689Z,889.00
2023-03-29T05:29:23.737Z,914.00
2023-03-29T05:30:23.721Z,930.00
2023-03-29T05:31:23.754Z,943.00
2023-03-29T05:32:23.843Z,990.00
2023-03-29T05:33:23.755Z,1025.00
2023-03-29T05:34:23.848Z,1031.00
2023-03-29T05:35:23.767Z,1063.00
2023-03-29T05:36:23.759Z,1071.00
2023-03-29T05:37:23.762Z,1099.00
2023-03-29T05:38:23.767Z,1108.00
2023-03-29T05:39:23.775Z,1112.00
2023-03-29T05:40:23.778Z,1127.00
2023-03-29T05:41:23.779Z,1143.00
2023-03-29T05:42:23.778Z,1134.00
2023-03-29T05:43:23.783Z,1140.00
2023-03-29T05:44:23.780Z,1154.00
2023-03-29T05:45:23.813Z,1159.00
2023-03-29T05:46:23.784Z,1165.00
2023-03-29T05:47:23.806Z,1157.00
2023-03-29T05:48:23.797Z,1162.00
2023-03-29T05:49:23.798Z,1156.00
2023-03-29T05:50:23.783Z,1169.00
2023-03-29T05:51:23.772Z,1178.00
2023-03-29T05:52:23.789Z,1178.00
2023-03-29T05:53:23.782Z,1178.00
2023-03-29T05:54:23.781Z,1182.00
2023-03-29T05:55:23.794Z,1194.00
2023-03-29T05:56:23.807Z,1178.00
2023-03-29T05:57:23.899Z,1184.00
2023-03-29T05:58:23.818Z,1190.00
2023-03-29T05:59:23.824Z,1186.00
2023-03-29T06:00:24.052Z,1191.00
2023-03-29T06:01:23.837Z,1208.00
2023-03-29T06:02:23.963Z,1202.00
2023-03-29T06:03:23.946Z,1212.00
2023-03-29T06:04:23.956Z,1196.00
2023-03-29T06:05:24.744Z,1191.00
2023-03-29T06:06:23.883Z,1203.00
2023-03-29T06:07:23.883Z,1200.00
2023-03-29T06:08:23.900Z,1228.00
2023-03-29T06:09:23.909Z,1201.00
2023-03-29T06:10:23.934Z,1221.00
2023-03-29T06:11:23.932Z,1215.00
2023-03-29T06:12:23.935Z,1218.00
2023-03-29T06:13:23.951Z,1218.00
2023-03-29T06:14:23.949Z,1217.00
2023-03-29T06:15:23.966Z,1217.00
2023-03-29T06:16:24.001Z,1225.00
2023-03-29T06:17:24.076Z,1229.00
2023-03-29T06:18:23.987Z,1215.00
2023-03-29T06:19:23.986Z,1221.00
2023-03-29T06:20:24.003Z,1205.00
2023-03-29T06:21:24.011Z,1212.00
2023-03-29T06:22:24.011Z,1205.00
2023-03-29T06:23:24.020Z,1209.00
2023-03-29T06:24:24.036Z,1236.00
2023-03-29T06:25:24.031Z,1239.00
2023-03-29T06:26:24.078Z,1247.00
2023-03-29T06:27:24.069Z,1241.00
2023-03-29T06:28:24.069Z,1231.00
2023-03-29T06:29:24.130Z,1237.00
2023-03-29T06:30:24.095Z,1240.00
2023-03-29T06:31:24.164Z,1218.00
2023-03-29T06:32:24.125Z,1225.00
2023-03-29T06:33:24.107Z,1239.00
2023-03-29T06:34:24.125Z,1261.00
2023-03-29T06:35:24.299Z,1301.00
2023-03-29T06:36:24.154Z,1315.00
2023-03-29T06:37:24.163Z,1321.00
2023-03-29T06:38:24.169Z,1339.00
2023-03-29T06:39:24.164Z,1311.00
2023-03-29T06:40:24.180Z,1337.00
2023-03-29T06:41:24.211Z,1345.00
2023-03-29T06:42:24.171Z,1369.00
2023-03-29T06:43:24.155Z,1385.00
2023-03-29T06:44:24.140Z,1365.00
2023-03-29T06:45:24.740Z,1393.00
2023-03-29T06:46:24.164Z,1407.00
2023-03-29T06:47:24.127Z,1424.00
2023-03-29T06:48:24.094Z,1454.00
2023-03-29T06:49:24.141Z,1490.00
2023-03-29T06:50:24.235Z,1524.00
2023-03-29T06:51:24.231Z,1552.00
2023-03-29T06:52:24.234Z,1585.00
2023-03-29T06:53:24.232Z,1620.00
2023-03-29T06:54:24.276Z,1645.00
2023-03-29T06:55:24.333Z,1667.00
2023-03-29T06:56:24.357Z,1695.00
2023-03-29T06:57:24.546Z,1731.00
2023-03-29T06:58:24.422Z,1755.00
2023-03-29T06:59:24.482Z,1800.00
2023-03-29T07:00:24.522Z,1825.00
2023-03-29T07:01:24.596Z,1866.00
2023-03-29T07:02:24.662Z,1923.00
2023-03-29T07:03:24.646Z,1946.00
2023-03-29T07:04:24.741Z,1969.00
2023-03-29T07:05:24.727Z,1991.00
2023-03-29T07:06:24.771Z,2025.00
2023-03-29T07:07:24.815Z,2051.00
2023-03-29T07:08:24.831Z,2064.00
2023-03-29T07:09:24.870Z,2078.00
2023-03-29T07:10:25.037Z,2091.00
2023-03-29T07:11:24.939Z,2105.00
2023-03-29T07:12:24.967Z,2140.00
2023-03-29T07:13:24.970Z,2168.00
2023-03-29T07:14:24.991Z,2196.00
2023-03-29T07:15:25.022Z,2213.00
2023-03-29T07:16:25.049Z,2206.00
2023-03-29T07:17:25.076Z,2234.00
2023-03-29T07:18:25.043Z,2260.00
2023-03-29T07:19:25.055Z,2260.00
2023-03-29T07:20:25.096Z,2265.00
2023-03-29T07:21:25.082Z,2266.00
2023-03-29T07:22:25.073Z,2280.00
2023-03-29T07:23:25.093Z,2266.00
2023-03-29T07:24:25.099Z,2263.00
2023-03-29T07:25:25.144Z,2252.00
2023-03-29T07:26:28.969Z,2255.00
2023-03-29T07:27:26.146Z,2256.00
2023-03-29T07:28:25.136Z,2257.00
2023-03-29T07:29:25.113Z,2258.00
2023-03-29T07:30:25.135Z,2234.00
2023-03-29T07:31:25.082Z,2237.00
2023-03-29T07:32:25.134Z,2220.00
2023-03-29T07:33:25.127Z,2203.00
2023-03-29T07:34:25.049Z,2185.00
2023-03-29T07:35:25.018Z,2177.00
2023-03-29T07:36:25.001Z,2160.00
2023-03-29T07:37:25.052Z,2164.00
2023-03-29T07:38:25.106Z,2147.00
2023-03-29T07:39:25.129Z,2148.00
2023-03-29T07:40:25.235Z,2129.00
2023-03-29T07:41:25.106Z,2125.00
2023-03-29T07:42:25.097Z,2085.00
2023-03-29T07:43:25.115Z,2097.00
2023-03-29T07:44:25.182Z,2071.00
2023-03-29T07:45:26.521Z,2055.00
2023-03-29T07:46:25.291Z,2046.00
2023-03-29T07:47:25.156Z,2033.00
2023-03-29T07:48:25.105Z,2019.00
2023-03-29T07:49:25.081Z,2003.00
2023-03-29T07:50:25.063Z,1985.00
2023-03-29T07:51:25.040Z,1972.00
2023-03-29T07:52:25.034Z,1967.00
2023-03-29T07:53:25.017Z,1941.00
2023-03-29T07:54:25.046Z,1925.00
2023-03-29T07:55:24.966Z,1911.00
2023-03-29T07:56:25.006Z,1907.00
2023-03-29T07:57:25.107Z,1895.00
2023-03-29T07:58:24.923Z,1883.00
2023-03-29T07:59:24.911Z,1868.00
2023-03-29T08:00:25.924Z,1869.00
2023-03-29T08:01:24.948Z,1860.00
2023-03-29T08:02:24.892Z,1835.00
2023-03-29T08:03:24.898Z,1818.00
2023-03-29T08:04:24.994Z,1806.00
2023-03-29T08:05:37.604Z,1786.00
2023-03-29T08:06:25.777Z,1787.00
2023-03-29T08:07:24.739Z,1782.00
2023-03-29T08:08:24.746Z,1766.00
2023-03-29T08:09:24.713Z,1739.00
2023-03-29T08:10:24.709Z,1720.00
2023-03-29T08:11:24.682Z,1693.00
2023-03-29T08:12:25.096Z,1662.00
2023-03-29T08:13:24.656Z,1682.00
2023-03-29T08:14:24.637Z,1665.00
2023-03-29T08:15:24.625Z,1646.00
2023-03-29T08:16:24.639Z,1646.00
2023-03-29T08:17:24.634Z,1651.00
2023-03-29T08:18:24.571Z,1061.00
2023-03-29T08:19:24.552Z,531.00
2023-03-29T08:20:24.544Z,476.00
2023-03-29T08:21:24.534Z,537.00
2023-03-29T08:22:24.512Z,608.00
2023-03-29T08:23:24.518Z,665.00
2023-03-29T08:24:24.493Z,739.00
2023-03-29T08:25:24.480Z,889.00
2023-03-29T08:26:24.469Z,1009.00
2023-03-29T08:27:24.450Z,1070.00
2023-03-29T08:28:24.439Z,1072.00
2023-03-29T08:29:25.284Z,1122.00
2023-03-29T08:30:24.428Z,1156.00
2023-03-29T08:31:24.465Z,1219.00
2023-03-29T08:32:24.468Z,1224.00
2023-03-29T08:33:24.420Z,1296.00
2023-03-29T08:34:25.384Z,1298.00
2023-03-29T08:35:24.366Z,1305.00
2023-03-29T08:36:25.288Z,1328.00
2023-03-29T08:37:24.331Z,1371.00
2023-03-29T08:38:24.462Z,1454.00
2023-03-29T08:39:24.277Z,1495.00
2023-03-29T08:40:24.250Z,1513.00
2023-03-29T08:41:24.233Z,1546.00
2023-03-29T08:42:24.249Z,1581.00
2023-03-29T08:43:24.297Z,1616.00
2023-03-29T08:44:24.341Z,1643.00
2023-03-29T08:45:24.380Z,1670.00
2023-03-29T08:46:24.451Z,1701.00
2023-03-29T08:47:24.472Z,1741.00
2023-03-29T08:48:25.209Z,1766.00
2023-03-29T08:49:24.531Z,1783.00
2023-03-29T08:50:24.544Z,1817.00
2023-03-29T08:51:24.599Z,1834.00
2023-03-29T08:52:25.217Z,1874.00
2023-03-29T08:53:24.641Z,1892.00
2023-03-29T08:54:24.665Z,1917.00
2023-03-29T08:55:24.684Z,1939.00
2023-03-29T08:56:24.706Z,1965.00
2023-03-29T08:57:25.815Z,1967.00
2023-03-29T08:58:24.667Z,1974.00
2023-03-29T08:59:24.636Z,1990.00
2023-03-29T09:00:24.619Z,2020.00
2023-03-29T09:01:24.582Z,2088.00
2023-03-29T09:02:24.648Z,2097.00
2023-03-29T09:03:24.599Z,2124.00
2023-03-29T09:04:24.504Z,2145.00
2023-03-29T09:05:24.484Z,2163.00
2023-03-29T09:06:24.453Z,2204.00
2023-03-29T09:07:26.453Z,2212.00
2023-03-29T09:08:24.403Z,2223.00
2023-03-29T09:09:24.369Z,2241.00
2023-03-29T09:10:24.336Z,2266.00
2023-03-29T09:11:24.350Z,2283.00
2023-03-29T09:12:24.283Z,2307.00
2023-03-29T09:13:24.276Z,2330.00
2023-03-29T09:14:24.227Z,2343.00
2023-03-29T09:15:24.212Z,2365.00
2023-03-29T09:16:24.194Z,2386.00
2023-03-29T09:17:24.179Z,2393.00
2023-03-29T09:18:24.182Z,2435.00
2023-03-29T09:19:24.161Z,2445.00
2023-03-29T09:20:24.143Z,2432.00
2023-03-29T09:21:24.143Z,2430.00
2023-03-29T09:22:24.148Z,2442.00
2023-03-29T09:23:24.133Z,2430.00
2023-03-29T09:24:24.114Z,2413.00
2023-03-29T09:25:24.113Z,2431.00
2023-03-29T09:26:24.100Z,2410.00
2023-03-29T09:27:24.114Z,2412.00
2023-03-29T09:28:24.144Z,2406.00
2023-03-29T09:29:24.041Z,2421.00
2023-03-29T09:30:24.018Z,2403.00
2023-03-29T09:31:24.028Z,2411.00
2023-03-29T09:32:24.082Z,2412.00
2023-03-29T09:33:23.989Z,2414.00
2023-03-29T09:34:23.934Z,2423.00
2023-03-29T09:35:23.945Z,2423.00
2023-03-29T09:36:23.898Z,2411.00
2023-03-29T09:37:23.879Z,2443.00
2023-03-29T09:38:23.857Z,2455.00
2023-03-29T09:39:23.853Z,2487.00
2023-03-29T09:40:23.837Z,2473.00
2023-03-29T09:41:23.819Z,2479.00
2023-03-29T09:42:23.792Z,2486.00
2023-03-29T09:43:23.774Z,2481.00
2023-03-29T09:44:30.763Z,2479.00
2023-03-29T09:45:24.740Z,2481.00
2023-03-29T09:46:23.704Z,2488.00
2023-03-29T09:47:23.693Z,2507.00
2023-03-29T09:48:23.645Z,2543.00
2023-03-29T09:49:23.607Z,2610.00
2023-03-29T09:50:31.718Z,2632.00
2023-03-29T09:51:24.553Z,2634.00
2023-03-29T09:52:23.534Z,2640.00
2023-03-29T09:53:23.496Z,2654.00
2023-03-29T09:54:23.453Z,2695.00
2023-03-29T09:55:23.416Z,2760.00
2023-03-29T09:56:23.387Z,2783.00
2023-03-29T09:57:23.397Z,2801.00
2023-03-29T09:58:23.349Z,2850.00
2023-03-29T09:59:23.303Z,2881.00
2023-03-29T10:00:23.281Z,2894.00
2023-03-29T10:01:23.298Z,2910.00
2023-03-29T10:02:23.225Z,2927.00
2023-03-29T10:03:23.172Z,2936.00
2023-03-29T10:04:23.216Z,2956.00
2023-03-29T10:05:23.146Z,2965.00
2023-03-29T10:06:23.155Z,2984.00
2023-03-29T10:07:23.159Z,3001.00
2023-03-29T10:08:23.192Z,3009.00
2023-03-29T10:09:23.211Z,3030.00
2023-03-29T10:10:23.243Z,3008.00
2023-03-29T10:11:23.362Z,3012.00
2023-03-29T10:12:23.307Z,3039.00
2023-03-29T10:13:23.343Z,3047.00
2023-03-29T10:14:23.348Z,3047.00
2023-03-29T10:15:29.732Z,2992.00
2023-03-29T10:16:24.375Z,2715.00
2023-03-29T10:17:23.325Z,2513.00
2023-03-29T10:18:23.231Z,2203.00
2023-03-29T10:19:23.222Z,2177.00
2023-03-29T10:20:23.178Z,2262.00
2023-03-29T10:21:23.174Z,1964.00
2023-03-29T10:22:23.148Z,1926.00
2023-03-29T10:23:23.068Z,1689.00
2023-03-29T10:24:23.049Z,1615.00
2023-03-29T10:25:23.012Z,1740.00
2023-03-29T10:26:23.009Z,1864.00
2023-03-29T10:27:22.971Z,1796.00
2023-03-29T10:28:22.958Z,1706.00
2023-03-29T10:29:22.996Z,1696.00
2023-03-29T10:30:23.028Z,1550.00
2023-03-29T10:31:23.151Z,1616.00
2023-03-29T10:32:23.245Z,1664.00
2023-03-29T10:33:23.115Z,1665.00
2023-03-29T10:34:23.142Z,1693.00
2023-03-29T10:35:23.157Z,1697.00
2023-03-29T10:36:23.176Z,1695.00
2023-03-29T10:37:23.196Z,1693.00
2023-03-29T10:38:23.204Z,1681.00
2023-03-29T10:39:23.210Z,1673.00
2023-03-29T10:40:23.234Z,1674.00
2023-03-29T10:41:23.226Z,1670.00
2023-03-29T10:42:23.192Z,1681.00
2023-03-29T10:43:23.218Z,1681.00
2023-03-29T10:44:23.196Z,1673.00
2023-03-29T10:45:23.194Z,1660.00
2023-03-29T10:46:23.255Z,1648.00
2023-03-29T10:47:23.345Z,1644.00
2023-03-29T10:48:23.163Z,1632.00
2023-03-29T10:49:24.128Z,1633.00
2023-03-29T10:50:23.092Z,1621.00
2023-03-29T10:51:23.074Z,1613.00
2023-03-29T10:52:23.845Z,1613.00
2023-03-29T10:53:23.014Z,1609.00
2023-03-29T10:54:22.977Z,1589.00
2023-03-29T10:55:22.952Z,1593.00
2023-03-29T10:56:22.925Z,1602.00
2023-03-29T10:57:23.008Z,1602.00
2023-03-29T10:58:22.852Z,1600.00
2023-03-29T10:59:22.823Z,1596.00
2023-03-29T11:00:22.772Z,1575.00
2023-03-29T11:01:22.790Z,1556.00
2023-03-29T11:02:22.749Z,1550.00
2023-03-29T11:03:22.811Z,1539.00
2023-03-29T11:04:22.632Z,1536.00
2023-03-29T11:05:22.611Z,1537.00
2023-03-29T11:06:22.573Z,1534.00
2023-03-29T11:07:22.563Z,1089.00
2023-03-29T11:08:22.504Z,1207.00
2023-03-29T11:09:22.477Z,1290.00
2023-03-29T11:10:22.448Z,1322.00
2023-03-29T11:11:22.405Z,1332.00
2023-03-29T11:12:22.373Z,1346.00
2023-03-29T11:13:22.348Z,1342.00
2023-03-29T11:14:22.326Z,1365.00
2023-03-29T11:15:22.330Z,1374.00
2023-03-29T11:16:22.428Z,1389.00
2023-03-29T11:17:22.360Z,1393.00
2023-03-29T11:18:22.313Z,1404.00
2023-03-29T11:19:22.312Z,1414.00
2023-03-29T11:20:22.320Z,1404.00
2023-03-29T11:21:22.306Z,1424.00
2023-03-29T11:22:22.296Z,1423.00
2023-03-29T11:23:22.308Z,1411.00
2023-03-29T11:24:22.335Z,1421.00
2023-03-29T11:25:22.298Z,1426.00
2023-03-29T11:26:22.308Z,1449.00
2023-03-29T11:27:22.312Z,1452.00
2023-03-29T11:28:22.316Z,1458.00
2023-03-29T11:29:22.319Z,1449.00
2023-03-29T11:30:22.330Z,1456.00
2023-03-29T11:31:22.363Z,1465.00
2023-03-29T11:32:22.366Z,1467.00
2023-03-29T11:33:22.382Z,1473.00
2023-03-29T11:34:22.381Z,1478.00
2023-03-29T11:35:22.382Z,1472.00
2023-03-29T11:36:22.411Z,1458.00
2023-03-29T11:37:22.425Z,1448.00
2023-03-29T11:38:22.463Z,1457.00
2023-03-29T11:39:22.484Z,1447.00
2023-03-29T11:40:22.525Z,1450.00
2023-03-29T11:41:22.543Z,1454.00
2023-03-29T11:42:23.283Z,1436.00
2023-03-29T11:43:22.598Z,1452.00
2023-03-29T11:44:22.642Z,1448.00
2023-03-29T11:45:22.700Z,1444.00
2023-03-29T11:46:22.805Z,1444.00
2023-03-29T11:47:22.751Z,1447.00
2023-03-29T11:48:22.782Z,1433.00
2023-03-29T11:49:22.810Z,1444.00
2023-03-29T11:50:22.844Z,1451.00
2023-03-29T11:51:22.898Z,1437.00
2023-03-29T11:52:22.939Z,1425.00
2023-03-29T11:53:22.947Z,1415.00
2023-03-29T11:54:22.983Z,1407.00
2023-03-29T11:55:23.045Z,1402.00
2023-03-29T11:56:23.067Z,1402.00
2023-03-29T11:57:23.160Z,1409.00
2023-03-29T11:58:23.148Z,1389.00
2023-03-29T11:59:23.178Z,1390.00
2023-03-29T12:00:23.237Z,1375.00
2023-03-29T12:01:23.267Z,1371.00
2023-03-29T12:02:23.425Z,1370.00
2023-03-29T12:03:23.406Z,1364.00
2023-03-29T12:04:23.395Z,1349.00
2023-03-29T12:05:23.404Z,1350.00
2023-03-29T12:06:23.434Z,1343.00
2023-03-29T12:07:23.403Z,1333.00